Time;durP1;ratioP1;P1;durP2;ratioP2;P2;SDS_P1;SDS_P2;PMS_P1;PMS_P2;Temp;Humidity;BMP_temperature;BMP_pressure;BME280_temperature;BME280_humidity;BME280_pressure;Samples;Min_cycle;Max_cycle;Signal;HPM_P1;HPM_P2
2023/10/19 00:01:25;;;;;;;131.63;124.50;;;7.50;99.90;;;;;;4875766;29;20071;-74
2023/10/19 00:03:55;;;;;;;142.85;134.88;;;7.50;99.90;;;;;;4874242;29;20048;-74
2023/10/19 00:06:23;;;;;;;135.98;128.10;;;7.50;99.90;;;;;;4890123;29;20051;-74
2023/10/19 00:08:52;;;;;;;127.95;120.53;;;7.50;99.90;;;;;;4893367;29;20140;-74
2023/10/19 00:11:25;;;;;;;152.10;143.55;;;7.50;99.90;;;;;;4888055;29;20115;-74
2023/10/19 00:13:54;;;;;;;170.05;160.75;;;7.50;99.90;;;;;;4882520;29;20446;-74
2023/10/19 00:16:23;;;;;;;157.25;148.52;;;7.50;99.90;;;;;;4887706;29;20072;-74
2023/10/19 00:18:52;;;;;;;218.85;206.45;;;7.50;99.90;;;;;;4891453;29;20052;-74
2023/10/19 00:21:20;;;;;;;244.35;230.77;;;7.50;99.90;;;;;;4881414;29;20131;-75
2023/10/19 00:23:51;;;;;;;201.35;190.80;;;7.50;99.90;;;;;;4870525;29;20088;-75
2023/10/19 00:26:20;;;;;;;195.88;185.30;;;7.50;99.90;;;;;;4884927;29;20051;-74
2023/10/19 00:28:58;;;;;;;197.13;186.32;;;7.50;99.90;;;;;;4873757;29;20055;-74
2023/10/19 00:31:26;;;;;;;219.02;206.52;;;7.40;99.90;;;;;;4885332;29;20493;-75
2023/10/19 00:33:51;;;;;;;179.32;169.55;;;7.40;99.90;;;;;;4873961;29;20464;-74
2023/10/19 00:36:20;;;;;;;213.90;202.37;;;7.40;99.90;;;;;;4893212;29;20072;-74
2023/10/19 00:41:22;;;;;;;268.55;253.68;;;7.40;99.90;;;;;;4897832;29;20052;-74
2023/10/19 00:43:49;;;;;;;237.88;224.77;;;7.50;99.90;;;;;;4890323;29;20041;-74
2023/10/19 00:48:47;;;;;;;188.57;177.73;;;7.50;99.90;;;;;;4899260;29;20116;-74
2023/10/19 00:51:41;;;;;;;150.20;141.43;;;7.50;99.90;;;;;;4881070;29;20073;-73
2023/10/19 00:54:15;;;;;;;198.23;186.88;;;7.40;99.90;;;;;;4877695;29;20047;-73
2023/10/19 00:56:51;;;;;;;187.27;176.80;;;7.40;99.90;;;;;;4898712;29;20040;-73
2023/10/19 00:59:26;;;;;;;169.52;159.15;;;7.40;99.90;;;;;;4894005;29;20505;-74
2023/10/19 01:01:55;;;;;;;155.02;145.52;;;7.50;99.90;;;;;;4883275;29;20116;-74
2023/10/19 01:04:30;;;;;;;180.07;168.82;;;7.40;99.90;;;;;;4870102;29;20048;-74
2023/10/19 01:07:07;;;;;;;175.68;165.68;;;7.50;99.90;;;;;;4873494;29;20064;-74
2023/10/19 01:09:36;;;;;;;187.65;177.00;;;7.50;99.90;;;;;;4888946;29;20048;-74
2023/10/19 01:12:25;;;;;;;288.40;272.55;;;7.50;99.90;;;;;;4886632;29;20053;-74
2023/10/19 01:17:56;;;;;;;192.20;181.15;;;7.50;99.90;;;;;;4885788;29;20045;-74
2023/10/19 01:25:59;;;;;;;228.18;215.75;;;7.50;99.90;;;;;;4902767;29;20627;-74
2023/10/19 01:28:43;;;;;;;197.52;185.90;;;7.50;99.90;;;;;;4895774;29;20044;-74
2023/10/19 01:31:16;;;;;;;205.25;193.60;;;7.50;99.90;;;;;;4892766;29;20506;-74
2023/10/19 01:33:44;;;;;;;200.52;187.40;;;7.50;99.90;;;;;;4889487;29;20059;-74
2023/10/19 01:36:11;;;;;;;165.40;155.50;;;7.50;99.90;;;;;;4891779;29;20048;-74
2023/10/19 01:38:37;;;;;;;156.27;146.35;;;7.50;99.90;;;;;;4879336;29;20051;-74
2023/10/19 01:41:23;;;;;;;160.57;150.75;;;7.50;99.90;;;;;;4891606;29;20044;-74
2023/10/19 01:43:54;;;;;;;189.40;178.57;;;7.50;99.90;;;;;;4895813;29;20123;-75
2023/10/19 01:46:23;;;;;;;248.50;234.98;;;7.50;99.90;;;;;;4890477;29;20067;-74
2023/10/19 01:48:55;;;;;;;178.73;168.05;;;7.50;99.90;;;;;;4878007;29;20486;-74
2023/10/19 01:51:23;;;;;;;205.48;193.68;;;7.60;99.90;;;;;;4878259;29;20081;-74
2023/10/19 01:53:49;;;;;;;190.52;179.52;;;7.60;99.90;;;;;;4871129;29;20498;-74
2023/10/19 01:56:18;;;;;;;145.30;135.68;;;7.60;99.90;;;;;;4874340;29;20040;-74
2023/10/19 01:58:50;;;;;;;197.38;186.23;;;7.60;99.90;;;;;;4875435;29;20079;-73
2023/10/19 02:03:59;;;;;;;195.77;184.15;;;7.60;99.90;;;;;;4889490;29;20052;-74
2023/10/19 02:06:37;;;;;;;188.82;178.10;;;7.60;99.90;;;;;;4879732;29;20044;-73
2023/10/19 02:09:26;;;;;;;209.05;196.65;;;7.60;99.90;;;;;;4875625;29;20048;-74
2023/10/19 02:11:57;;;;;;;200.48;188.77;;;7.60;99.90;;;;;;4889286;29;20095;-73
2023/10/19 02:14:30;;;;;;;214.43;202.80;;;7.60;99.90;;;;;;4879937;29;20513;-73
2023/10/19 02:16:57;;;;;;;195.70;184.45;;;7.60;99.90;;;;;;4891037;29;20048;-73
2023/10/19 02:19:25;;;;;;;177.60;167.57;;;7.60;99.90;;;;;;4892734;29;20080;-73
2023/10/19 02:21:56;;;;;;;189.65;179.27;;;7.70;99.90;;;;;;4897218;29;20458;-73
2023/10/19 02:24:22;;;;;;;173.43;163.25;;;7.70;99.90;;;;;;4896347;29;20075;-73
2023/10/19 02:26:54;;;;;;;231.80;219.80;;;7.70;99.90;;;;;;4886211;29;20155;-73
2023/10/19 02:29:21;;;;;;;188.20;177.55;;;7.70;99.90;;;;;;4890880;29;20040;-73
2023/10/19 02:31:48;;;;;;;239.13;226.40;;;7.70;99.90;;;;;;4883093;29;20056;-73
2023/10/19 02:34:16;;;;;;;180.57;171.00;;;7.70;99.90;;;;;;4896674;29;20120;-73
2023/10/19 02:36:44;;;;;;;221.60;210.73;;;7.70;99.90;;;;;;4893385;29;20526;-73
2023/10/19 02:39:13;;;;;;;164.07;154.98;;;7.70;99.90;;;;;;4891182;29;20068;-73
2023/10/19 02:41:44;;;;;;;195.30;184.98;;;7.70;99.90;;;;;;4901887;29;20083;-73
2023/10/19 02:46:53;;;;;;;215.07;204.25;;;7.70;99.90;;;;;;4885017;29;20771;-73
2023/10/19 02:49:21;;;;;;;214.30;203.43;;;7.80;99.90;;;;;;4874987;29;20052;-73
2023/10/19 02:51:49;;;;;;;232.60;220.88;;;7.80;99.90;;;;;;4886613;29;20506;-73
2023/10/19 02:54:20;;;;;;;216.27;205.30;;;7.80;99.90;;;;;;4891460;29;20592;-73
2023/10/19 02:56:51;;;;;;;220.88;209.60;;;7.80;99.90;;;;;;4879080;29;20738;-73
2023/10/19 02:59:22;;;;;;;204.30;193.35;;;7.80;99.90;;;;;;4896482;29;20111;-74
2023/10/19 03:01:52;;;;;;;167.13;157.95;;;7.80;99.90;;;;;;4882179;29;20784;-73
2023/10/19 03:04:18;;;;;;;227.02;216.15;;;7.80;99.90;;;;;;4877666;29;20131;-73
2023/10/19 03:06:44;;;;;;;183.17;174.13;;;7.80;99.90;;;;;;4877946;29;20216;-73
2023/10/19 03:09:13;;;;;;;210.38;200.05;;;7.80;99.90;;;;;;4892120;29;20037;-73
2023/10/19 03:11:43;;;;;;;219.80;209.50;;;7.80;99.90;;;;;;4875567;29;20052;-73
2023/10/19 03:14:13;;;;;;;219.30;208.63;;;7.80;99.90;;;;;;4873392;29;20048;-73
2023/10/19 03:16:42;;;;;;;185.05;175.95;;;7.90;99.90;;;;;;4892983;29;20450;-73
2023/10/19 03:19:07;;;;;;;206.18;196.27;;;7.90;99.90;;;;;;4877240;29;20067;-73
2023/10/19 03:21:41;;;;;;;210.67;200.73;;;7.90;99.90;;;;;;4878249;29;20075;-73
2023/10/19 03:24:23;;;;;;;189.85;180.48;;;7.90;99.90;;;;;;4893103;29;20079;-74
2023/10/19 03:26:49;;;;;;;242.02;230.75;;;7.90;99.90;;;;;;4882476;29;20052;-74
2023/10/19 03:29:22;;;;;;;185.93;176.88;;;8.00;99.90;;;;;;4875032;29;20044;-74
2023/10/19 03:31:48;;;;;;;191.38;182.25;;;8.00;99.90;;;;;;4876375;29;20493;-74
2023/10/19 03:34:17;;;;;;;231.20;220.23;;;8.00;99.90;;;;;;4895287;29;20065;-74
2023/10/19 03:36:43;;;;;;;195.55;186.25;;;8.00;99.90;;;;;;4873206;29;20048;-73
2023/10/19 03:39:15;;;;;;;195.10;185.93;;;8.00;99.90;;;;;;4891975;29;20048;-74
2023/10/19 03:41:42;;;;;;;196.98;187.50;;;8.00;99.90;;;;;;4872549;29;20045;-73
2023/10/19 03:44:24;;;;;;;171.30;162.90;;;8.00;99.90;;;;;;4893375;29;20402;-73
2023/10/19 03:46:55;;;;;;;173.52;165.07;;;8.00;99.90;;;;;;4871383;29;20044;-74
2023/10/19 03:49:22;;;;;;;190.82;181.23;;;8.10;99.90;;;;;;4893111;29;20096;-74
2023/10/19 03:51:58;;;;;;;188.38;179.00;;;8.10;99.90;;;;;;4875401;29;20048;-73
2023/10/19 03:54:27;;;;;;;192.43;183.13;;;8.10;99.90;;;;;;4884526;29;20529;-73
2023/10/19 03:57:01;;;;;;;212.98;202.75;;;8.10;99.90;;;;;;4905484;29;20032;-73
2023/10/19 03:59:30;;;;;;;175.43;166.52;;;8.10;99.90;;;;;;4888587;29;20123;-73
2023/10/19 04:01:59;;;;;;;181.10;172.43;;;8.10;99.90;;;;;;4875184;29;20045;-73
2023/10/19 04:04:25;;;;;;;234.57;223.20;;;8.10;99.90;;;;;;4889878;29;20119;-73
2023/10/19 04:06:57;;;;;;;178.83;169.73;;;8.10;99.90;;;;;;4891062;29;20131;-73
2023/10/19 04:09:28;;;;;;;139.75;132.38;;;8.20;99.90;;;;;;4888782;29;20295;-73
2023/10/19 04:11:57;;;;;;;186.88;177.73;;;8.20;99.90;;;;;;4887980;29;20053;-73
2023/10/19 04:14:23;;;;;;;190.07;180.32;;;8.20;99.90;;;;;;4870850;29;20404;-73
2023/10/19 04:16:49;;;;;;;166.27;157.87;;;8.20;99.90;;;;;;4890911;29;20099;-73
2023/10/19 04:19:18;;;;;;;222.63;211.83;;;8.20;99.90;;;;;;4890314;29;20185;-73
2023/10/19 04:21:46;;;;;;;167.50;158.98;;;8.20;99.90;;;;;;4892196;29;20094;-73
2023/10/19 04:24:12;;;;;;;197.65;187.63;;;8.30;99.90;;;;;;4901603;29;20785;-75
2023/10/19 04:26:38;;;;;;;176.32;167.00;;;8.30;99.90;;;;;;4899080;29;20053;-74
2023/10/19 04:29:11;;;;;;;203.38;193.35;;;8.30;99.90;;;;;;4896188;29;20048;-74
2023/10/19 04:31:49;;;;;;;188.30;178.93;;;8.30;99.90;;;;;;4900863;29;20979;-74
2023/10/19 04:34:16;;;;;;;176.77;167.68;;;8.30;99.90;;;;;;4896959;29;20060;-74
2023/10/19 04:36:42;;;;;;;150.13;141.90;;;8.30;99.90;;;;;;4884983;29;20048;-74
2023/10/19 04:39:13;;;;;;;191.15;181.52;;;8.30;99.90;;;;;;4881410;29;20044;-74
2023/10/19 04:41:40;;;;;;;181.70;172.25;;;8.40;99.90;;;;;;4901671;29;20425;-74
2023/10/19 04:44:08;;;;;;;233.35;222.07;;;8.40;99.90;;;;;;4889596;29;20080;-74
2023/10/19 04:46:34;;;;;;;185.38;176.07;;;8.40;99.90;;;;;;4887472;29;20052;-74
2023/10/19 04:49:00;;;;;;;179.77;170.63;;;8.40;99.90;;;;;;4894055;29;20078;-74
2023/10/19 04:51:26;;;;;;;191.65;182.07;;;8.40;99.90;;;;;;4896499;29;20060;-74
2023/10/19 04:53:51;;;;;;;219.90;208.93;;;8.40;99.90;;;;;;4877514;29;20048;-73
2023/10/19 04:56:17;;;;;;;241.13;229.67;;;8.40;99.90;;;;;;4899919;29;20032;-74
2023/10/19 04:58:43;;;;;;;193.33;183.60;;;8.40;99.90;;;;;;4900794;29;20036;-74
2023/10/19 05:01:11;;;;;;;165.30;156.80;;;8.40;99.90;;;;;;4899638;29;20489;-74
2023/10/19 05:03:37;;;;;;;195.50;186.00;;;8.40;99.90;;;;;;4898417;29;20048;-74
2023/10/19 05:06:03;;;;;;;179.45;170.50;;;8.50;99.90;;;;;;4897184;29;20395;-75
2023/10/19 05:08:30;;;;;;;203.73;194.00;;;8.50;99.90;;;;;;4881150;29;20055;-75
2023/10/19 05:10:56;;;;;;;173.55;164.80;;;8.50;99.90;;;;;;4876281;29;20847;-75
2023/10/19 05:13:26;;;;;;;185.45;176.20;;;8.50;99.90;;;;;;4889838;29;20141;-75
2023/10/19 05:15:58;;;;;;;174.38;165.68;;;8.50;99.90;;;;;;4893940;29;20052;-75
2023/10/19 05:18:25;;;;;;;216.55;206.32;;;8.50;99.90;;;;;;4911528;29;20055;-76
2023/10/19 05:20:55;;;;;;;176.55;167.40;;;8.50;99.90;;;;;;4892109;29;20048;-76
2023/10/19 05:23:25;;;;;;;212.77;202.45;;;8.50;99.90;;;;;;4891764;29;20479;-75
2023/10/19 05:26:02;;;;;;;192.23;182.90;;;8.60;99.90;;;;;;4910944;29;20043;-75
2023/10/19 05:28:28;;;;;;;222.38;212.02;;;8.60;99.90;;;;;;4890169;29;20051;-76
2023/10/19 05:30:54;;;;;;;185.27;176.07;;;8.60;99.90;;;;;;4900417;29;20510;-75
2023/10/19 05:33:23;;;;;;;163.60;155.30;;;8.60;99.90;;;;;;4874713;29;20375;-75
2023/10/19 05:35:50;;;;;;;235.02;223.68;;;8.60;99.90;;;;;;4873297;29;20040;-75
2023/10/19 05:38:21;;;;;;;154.35;146.25;;;8.60;99.90;;;;;;4897394;29;20062;-75
2023/10/19 05:40:49;;;;;;;183.60;174.23;;;8.60;99.90;;;;;;4895308;29;20127;-75
2023/10/19 05:43:15;;;;;;;206.05;196.15;;;8.60;99.90;;;;;;4893876;29;20048;-75
2023/10/19 05:45:41;;;;;;;237.93;226.30;;;8.60;99.90;;;;;;4885507;29;20052;-75
2023/10/19 05:48:07;;;;;;;178.60;169.50;;;8.60;99.90;;;;;;4883836;29;20037;-75
2023/10/19 05:50:34;;;;;;;205.77;195.53;;;8.60;99.90;;;;;;4879202;29;20274;-75
2023/10/19 05:53:00;;;;;;;217.50;207.00;;;8.70;99.90;;;;;;4904869;29;20131;-75
2023/10/19 05:55:26;;;;;;;173.27;164.82;;;8.70;99.90;;;;;;4888029;29;20541;-75
2023/10/19 05:57:52;;;;;;;157.80;149.50;;;8.70;99.90;;;;;;4874700;29;20045;-75
2023/10/19 06:00:20;;;;;;;183.10;174.07;;;8.70;99.90;;;;;;4896602;29;20844;-75
2023/10/19 06:02:49;;;;;;;195.80;186.10;;;8.70;99.90;;;;;;4881991;29;20041;-75
2023/10/19 06:05:15;;;;;;;186.18;176.50;;;8.70;99.90;;;;;;4875959;29;20051;-75
2023/10/19 06:07:49;;;;;;;194.25;184.48;;;8.70;99.90;;;;;;4891799;29;20036;-75
2023/10/19 06:10:20;;;;;;;220.00;209.20;;;8.70;99.90;;;;;;4892383;29;20056;-75
2023/10/19 06:12:51;;;;;;;151.70;143.30;;;8.70;99.90;;;;;;4891893;29;20056;-75
2023/10/19 06:15:20;;;;;;;175.23;166.68;;;8.70;99.90;;;;;;4874602;29;20135;-75
2023/10/19 06:17:47;;;;;;;172.35;163.57;;;8.70;99.90;;;;;;4876192;29;20486;-75
2023/10/19 06:20:23;;;;;;;181.73;172.50;;;8.70;99.90;;;;;;4873783;29;20159;-75
2023/10/19 06:22:51;;;;;;;245.63;234.00;;;8.70;99.90;;;;;;4884685;29;20043;-75
2023/10/19 06:25:21;;;;;;;184.02;174.30;;;8.70;99.90;;;;;;4887254;29;20105;-75
2023/10/19 06:27:47;;;;;;;191.65;181.73;;;8.70;99.90;;;;;;4876841;29;20048;-75
2023/10/19 06:30:18;;;;;;;193.98;184.10;;;8.70;99.90;;;;;;4889289;29;20433;-75
2023/10/19 06:33:02;;;;;;;202.20;192.50;;;8.70;99.90;;;;;;4893968;29;20079;-75
2023/10/19 06:35:31;;;;;;;218.40;208.13;;;8.70;99.90;;;;;;4896716;29;20056;-76
2023/10/19 06:37:58;;;;;;;206.70;196.55;;;8.70;99.90;;;;;;4875525;29;20047;-76
2023/10/19 06:40:26;;;;;;;203.07;193.23;;;8.80;99.90;;;;;;4893245;29;20585;-76
2023/10/19 06:42:55;;;;;;;216.55;206.02;;;8.80;99.90;;;;;;4899047;29;20091;-76
2023/10/19 06:45:21;;;;;;;195.75;185.68;;;8.80;99.90;;;;;;4894375;29;20239;-75
2023/10/19 06:47:49;;;;;;;205.73;195.63;;;8.80;99.90;;;;;;4876925;29;20541;-75
2023/10/19 06:50:18;;;;;;;216.30;205.50;;;8.80;99.90;;;;;;4892809;29;20395;-75
2023/10/19 06:52:46;;;;;;;202.40;192.23;;;8.80;99.90;;;;;;4895252;29;20598;-76
2023/10/19 06:55:22;;;;;;;238.93;227.07;;;8.90;99.90;;;;;;4877722;29;20072;-75
2023/10/19 06:57:53;;;;;;;213.52;202.93;;;8.90;99.90;;;;;;4894865;29;20123;-75
2023/10/19 07:00:22;;;;;;;191.38;181.43;;;8.90;99.90;;;;;;4877715;29;20035;-75
2023/10/19 07:02:51;;;;;;;208.90;198.40;;;8.90;99.90;;;;;;4879501;29;20044;-75
2023/10/19 07:05:20;;;;;;;198.73;187.55;;;8.90;99.90;;;;;;4882147;29;20048;-75
2023/10/19 07:07:46;;;;;;;199.32;189.43;;;8.90;99.90;;;;;;4879236;29;20449;-75
2023/10/19 07:10:13;;;;;;;231.63;220.37;;;8.90;99.90;;;;;;4883666;29;20048;-75
2023/10/19 07:12:47;;;;;;;208.95;198.15;;;8.90;99.90;;;;;;4875088;29;20087;-76
2023/10/19 07:15:14;;;;;;;191.13;181.05;;;9.00;99.90;;;;;;4878156;29;20048;-76
2023/10/19 07:17:43;;;;;;;205.55;195.15;;;9.00;99.90;;;;;;4877418;29;20151;-76
2023/10/19 07:20:22;;;;;;;231.35;219.88;;;9.00;99.90;;;;;;4891150;29;20040;-75
2023/10/19 07:22:48;;;;;;;275.52;262.25;;;9.00;99.90;;;;;;4891659;29;20036;-75
2023/10/19 07:25:13;;;;;;;177.70;168.55;;;9.00;99.90;;;;;;4887656;29;20044;-75
2023/10/19 07:27:42;;;;;;;216.93;205.83;;;9.00;99.90;;;;;;4877324;29;20062;-76
2023/10/19 07:30:09;;;;;;;200.35;190.20;;;9.00;99.90;;;;;;4900173;29;20044;-76
2023/10/19 07:32:35;;;;;;;232.20;220.75;;;9.00;99.90;;;;;;4893228;29;20045;-76
2023/10/19 07:35:01;;;;;;;212.13;201.70;;;9.10;99.90;;;;;;4874026;29;20107;-76
2023/10/19 07:37:28;;;;;;;227.48;216.25;;;9.00;99.90;;;;;;4873585;29;20139;-76
2023/10/19 07:39:56;;;;;;;196.32;186.50;;;9.10;99.90;;;;;;4875699;29;20054;-76
2023/10/19 07:42:23;;;;;;;205.50;195.15;;;9.10;99.90;;;;;;4881131;29;20044;-75
2023/10/19 07:44:49;;;;;;;205.80;195.85;;;9.10;99.90;;;;;;4876967;29;20135;-76
2023/10/19 07:47:14;;;;;;;191.23;181.60;;;9.10;99.90;;;;;;4892450;29;20085;-76
2023/10/19 07:49:40;;;;;;;216.13;205.73;;;9.10;99.90;;;;;;4891684;29;20131;-75
2023/10/19 07:52:07;;;;;;;228.00;217.00;;;9.10;99.90;;;;;;4879890;29;20068;-75
2023/10/19 07:54:35;;;;;;;225.20;214.27;;;9.20;99.90;;;;;;4897953;29;20409;-75
2023/10/19 07:57:07;;;;;;;200.25;189.93;;;9.20;99.90;;;;;;4873618;29;20041;-76
2023/10/19 07:59:33;;;;;;;239.95;228.50;;;9.20;99.90;;;;;;4885926;29;20111;-75
2023/10/19 08:02:02;;;;;;;220.33;209.50;;;9.20;99.90;;;;;;4871612;29;20048;-76
2023/10/19 08:04:28;;;;;;;222.20;211.25;;;9.20;99.90;;;;;;4888777;29;20075;-75
2023/10/19 08:06:55;;;;;;;240.82;229.23;;;9.20;99.90;;;;;;4892312;29;20040;-75
2023/10/19 08:09:26;;;;;;;221.82;211.10;;;9.30;99.90;;;;;;4887912;29;20040;-76
2023/10/19 08:11:59;;;;;;;205.10;195.07;;;9.30;99.90;;;;;;4893263;29;20045;-75
2023/10/19 08:14:28;;;;;;;217.50;207.25;;;9.40;99.90;;;;;;4877527;29;20036;-75
2023/10/19 08:16:54;;;;;;;230.20;219.10;;;9.40;99.90;;;;;;4887193;29;20098;-76
2023/10/19 08:19:20;;;;;;;257.42;245.25;;;9.40;99.90;;;;;;4890307;29;20046;-76
2023/10/19 08:21:46;;;;;;;248.48;236.30;;;9.50;99.90;;;;;;4891306;29;20041;-76
2023/10/19 08:24:17;;;;;;;212.77;202.13;;;9.50;99.90;;;;;;4887200;29;20045;-76
2023/10/19 08:26:46;;;;;;;245.80;233.20;;;9.50;99.90;;;;;;4892333;29;20299;-76
2023/10/19 08:29:12;;;;;;;224.93;213.32;;;9.50;99.90;;;;;;4894604;29;20289;-76
2023/10/19 08:31:42;;;;;;;184.13;174.47;;;9.50;99.90;;;;;;4883941;29;20071;-76
2023/10/19 08:34:11;;;;;;;192.50;182.23;;;9.50;99.90;;;;;;4891437;29;20307;-76
2023/10/19 08:36:42;;;;;;;211.77;201.00;;;9.60;99.90;;;;;;4897453;29;20056;-74
2023/10/19 08:39:09;;;;;;;212.50;201.60;;;9.60;99.90;;;;;;4888028;29;20289;-75
2023/10/19 08:41:37;;;;;;;205.32;194.65;;;9.60;99.90;;;;;;4888409;29;20055;-75
2023/10/19 08:44:10;;;;;;;194.00;183.57;;;9.60;99.90;;;;;;4883029;29;20408;-74
2023/10/19 08:46:47;;;;;;;173.75;163.70;;;9.70;99.90;;;;;;4872719;29;20305;-74
2023/10/19 08:49:14;;;;;;;229.10;217.17;;;9.70;99.90;;;;;;4888877;29;20119;-74
2023/10/19 08:51:46;;;;;;;198.03;187.57;;;9.70;99.90;;;;;;4893704;29;20309;-74
2023/10/19 08:54:13;;;;;;;214.13;202.73;;;9.80;99.90;;;;;;4881620;29;20293;-74
2023/10/19 08:56:41;;;;;;;237.03;224.83;;;9.80;99.90;;;;;;4877935;29;20433;-74
2023/10/19 08:59:15;;;;;;;188.43;178.30;;;9.90;99.90;;;;;;4863289;29;20284;-76
2023/10/19 09:01:43;;;;;;;230.00;218.13;;;9.90;99.90;;;;;;4898122;29;20288;-74
2023/10/19 09:04:10;;;;;;;215.00;203.57;;;10.00;99.90;;;;;;4897368;29;20289;-75
2023/10/19 09:06:44;;;;;;;206.50;195.70;;;10.00;99.90;;;;;;4875454;29;20299;-74
2023/10/19 09:09:19;;;;;;;220.43;209.20;;;10.00;99.90;;;;;;4897317;29;20843;-74
2023/10/19 09:11:48;;;;;;;;;;;10.00;99.90;;;;;;4890654;29;20372;-74
2023/10/19 09:14:33;;;;;;;227.17;214.37;;;10.00;99.90;;;;;;4901013;29;19927;-75
2023/10/19 09:17:00;;;;;;;231.95;220.60;;;10.00;99.90;;;;;;4891277;29;20292;-75
2023/10/19 09:19:56;;;;;;;196.10;185.60;;;10.10;99.90;;;;;;4888080;29;20076;-75
2023/10/19 09:22:25;;;;;;;;;;;10.10;99.90;;;;;;4872920;29;20293;-74
2023/10/19 09:24:55;;;;;;;221.10;209.93;;;10.10;99.90;;;;;;4884984;29;20010;-74
2023/10/19 09:27:21;;;;;;;216.90;205.30;;;10.10;99.90;;;;;;4895675;29;20999;-74
2023/10/19 09:29:51;;;;;;;200.13;189.07;;;10.10;99.90;;;;;;4902690;29;20340;-74
2023/10/19 09:32:17;;;;;;;189.10;178.73;;;10.10;99.90;;;;;;4879638;29;20049;-74
2023/10/19 09:34:44;;;;;;;189.17;178.77;;;10.10;99.90;;;;;;4896265;29;20809;-74
2023/10/19 09:37:11;;;;;;;219.83;208.10;;;10.10;99.90;;;;;;4890200;29;20047;-75
2023/10/19 09:39:37;;;;;;;223.93;212.40;;;10.10;99.90;;;;;;4889080;29;20293;-74
2023/10/19 09:42:10;;;;;;;226.30;214.97;;;10.10;99.90;;;;;;4875743;29;20281;-74
2023/10/19 09:45:05;;;;;;;212.93;201.63;;;10.20;99.90;;;;;;4879850;29;20864;-74
2023/10/19 09:47:38;;;;;;;210.33;199.17;;;10.20;99.90;;;;;;4882425;29;20302;-74
2023/10/19 09:50:08;;;;;;;217.57;205.97;;;10.20;99.90;;;;;;4885542;29;20352;-74
2023/10/19 09:52:35;;;;;;;182.20;171.60;;;10.20;99.90;;;;;;4886669;29;20305;-74
2023/10/19 09:55:27;;;;;;;185.03;174.03;;;10.20;99.90;;;;;;4886607;29;20284;-75
2023/10/19 09:58:02;;;;;;;214.50;202.67;;;10.30;99.90;;;;;;4894990;29;20309;-75
2023/10/19 10:00:31;;;;;;;255.43;242.47;;;10.30;99.90;;;;;;4883159;29;20287;-74
2023/10/19 10:02:58;;;;;;;222.27;211.43;;;10.40;99.90;;;;;;4891854;29;20490;-74
2023/10/19 10:05:42;;;;;;;257.13;244.33;;;10.40;99.90;;;;;;4886120;29;20300;-75
2023/10/19 10:08:22;;;;;;;185.33;175.23;;;10.50;99.90;;;;;;4870247;29;20340;-74
2023/10/19 10:10:50;;;;;;;211.53;200.60;;;10.50;99.90;;;;;;4896463;29;20465;-74
2023/10/19 10:13:26;;;;;;;213.10;201.87;;;10.60;99.90;;;;;;4885512;29;20344;-74
2023/10/19 10:15:57;;;;;;;244.03;231.90;;;10.60;99.90;;;;;;4877563;29;21226;-74
2023/10/19 10:18:34;;;;;;;226.17;215.40;;;10.70;99.90;;;;;;4877964;29;20319;-74
2023/10/19 10:21:16;;;;;;;207.63;197.53;;;10.70;99.90;;;;;;4887819;29;20857;-76
2023/10/19 10:23:54;;;;;;;252.53;240.10;;;10.80;99.90;;;;;;4904868;29;20356;-75
2023/10/19 10:26:25;;;;;;;208.17;198.13;;;10.80;99.90;;;;;;4896041;29;20836;-75
2023/10/19 10:29:19;;;;;;;208.00;197.50;;;10.80;99.90;;;;;;4923933;29;20299;-75
2023/10/19 10:31:46;;;;;;;212.80;202.50;;;10.80;99.90;;;;;;4905756;29;20316;-76
2023/10/19 10:34:42;;;;;;;229.60;218.63;;;10.90;99.90;;;;;;4907193;29;20331;-75
2023/10/19 10:37:10;;;;;;;197.23;188.00;;;10.90;99.90;;;;;;4897454;29;20293;-76
2023/10/19 10:39:38;;;;;;;197.30;188.20;;;11.00;99.90;;;;;;4893432;29;20041;-76
2023/10/19 10:42:06;;;;;;;221.30;211.10;;;11.00;99.90;;;;;;4888477;29;20297;-76
2023/10/19 10:44:45;;;;;;;187.67;178.63;;;11.00;99.90;;;;;;4889434;29;20316;-76
2023/10/19 10:47:24;;;;;;;261.30;249.33;;;11.00;99.90;;;;;;4905191;29;20292;-76
2023/10/19 10:50:00;;;;;;;175.07;166.37;;;11.10;99.90;;;;;;4899280;29;20328;-76
2023/10/19 10:52:34;;;;;;;212.87;202.77;;;11.20;99.90;;;;;;4898567;29;20321;-75
2023/10/19 10:55:11;;;;;;;189.87;180.30;;;11.30;99.90;;;;;;4889902;29;20288;-75
2023/10/19 10:57:39;;;;;;;181.10;172.33;;;11.40;99.90;;;;;;4902705;29;20281;-75
2023/10/19 11:00:15;;;;;;;189.97;181.00;;;11.50;99.90;;;;;;4891412;29;20288;-74
2023/10/19 11:02:43;;;;;;;197.50;188.23;;;11.60;99.90;;;;;;4905527;29;20348;-74
2023/10/19 11:05:14;;;;;;;179.03;170.23;;;11.80;99.90;;;;;;4877873;29;20289;-74
2023/10/19 11:07:40;;;;;;;210.30;200.30;;;11.80;99.90;;;;;;4891746;29;20432;-75
2023/10/19 11:10:06;;;;;;;242.10;230.83;;;11.90;99.90;;;;;;4882885;29;20289;-74
2023/10/19 11:12:33;;;;;;;203.33;193.57;;;12.00;99.90;;;;;;4895011;29;20309;-75
2023/10/19 11:15:00;;;;;;;201.27;191.60;;;12.00;99.90;;;;;;4884481;29;20285;-74
2023/10/19 11:17:33;;;;;;;188.47;179.60;;;12.00;99.90;;;;;;4908381;29;20288;-74
2023/10/19 11:19:59;;;;;;;225.37;214.70;;;12.10;99.90;;;;;;4887646;29;20297;-74
2023/10/19 11:22:26;;;;;;;208.73;199.07;;;12.10;99.90;;;;;;4897543;29;20324;-74
2023/10/19 11:24:56;;;;;;;194.03;184.77;;;12.10;99.90;;;;;;4899140;29;20293;-74
2023/10/19 11:27:28;;;;;;;209.33;199.40;;;12.00;99.90;;;;;;4890175;29;20289;-75
2023/10/19 11:29:58;;;;;;;238.37;226.70;;;12.00;99.90;;;;;;4904726;29;20367;-75
2023/10/19 11:32:38;;;;;;;175.73;166.83;;;12.00;99.90;;;;;;4888581;29;20323;-74
2023/10/19 11:35:07;;;;;;;173.23;164.83;;;12.00;99.90;;;;;;4894479;29;20303;-75
2023/10/19 11:38:05;;;;;;;210.30;200.10;;;12.00;99.90;;;;;;4897522;29;20292;-75
2023/10/19 11:40:30;;;;;;;190.97;181.67;;;12.10;99.90;;;;;;4859686;29;20727;-74
2023/10/19 11:42:56;;;;;;;198.70;189.17;;;12.20;99.90;;;;;;4903602;29;20292;-74
2023/10/19 11:45:25;;;;;;;188.67;179.50;;;12.20;99.90;;;;;;4905772;29;20036;-75
2023/10/19 11:47:52;;;;;;;209.63;199.47;;;12.40;99.90;;;;;;4903374;29;20046;-74
2023/10/19 11:50:19;;;;;;;215.73;205.40;;;12.60;99.90;;;;;;4901397;29;20300;-75
2023/10/19 11:52:45;;;;;;;185.23;176.40;;;12.60;99.90;;;;;;4899060;29;20312;-74
2023/10/19 11:55:13;;;;;;;181.07;172.23;;;12.70;99.90;;;;;;4900547;29;20477;-74
2023/10/19 11:57:40;;;;;;;183.73;174.83;;;12.60;99.90;;;;;;4882870;29;20292;-74
2023/10/19 12:00:09;;;;;;;170.63;162.30;;;12.60;99.90;;;;;;4908956;29;20301;-75
2023/10/19 12:02:38;;;;;;;161.73;153.90;;;12.60;99.90;;;;;;4903986;29;20296;-75
2023/10/19 12:05:09;;;;;;;171.70;163.53;;;12.50;99.90;;;;;;4905005;29;20320;-75
2023/10/19 12:07:39;;;;;;;182.73;173.97;;;12.50;99.90;;;;;;4889516;29;20304;-74
2023/10/19 12:10:08;;;;;;;198.93;189.33;;;12.50;99.90;;;;;;4885024;29;20653;-74
2023/10/19 12:12:37;;;;;;;182.70;173.57;;;12.50;99.90;;;;;;4887402;29;20332;-75
2023/10/19 12:15:05;;;;;;;208.53;198.40;;;12.40;99.90;;;;;;4892036;29;20289;-74
2023/10/19 12:17:31;;;;;;;218.50;208.00;;;12.40;99.90;;;;;;4903131;29;20286;-74
2023/10/19 12:19:57;;;;;;;222.50;211.23;;;12.30;99.90;;;;;;4904143;29;20293;-74
2023/10/19 12:22:25;;;;;;;213.00;202.43;;;12.30;99.90;;;;;;4885077;29;21032;-74
2023/10/19 12:24:51;;;;;;;194.53;185.13;;;12.30;99.90;;;;;;4916060;29;20059;-74
2023/10/19 12:27:18;;;;;;;130.57;123.50;;;12.20;99.90;;;;;;4903014;29;20288;-75
2023/10/19 12:29:44;;;;;;;181.63;172.77;;;12.20;99.90;;;;;;4899719;29;20320;-74
2023/10/19 12:32:09;;;;;;;182.70;173.83;;;12.20;99.90;;;;;;4885896;29;20307;-73
2023/10/19 12:34:35;;;;;;;157.87;150.13;;;12.20;99.90;;;;;;4912548;29;20040;-73
2023/10/19 12:37:03;;;;;;;161.70;153.27;;;12.10;99.90;;;;;;4903825;29;20040;-74
2023/10/19 12:39:44;;;;;;;175.80;167.17;;;12.10;99.90;;;;;;4889471;29;20849;-74
2023/10/19 12:42:10;;;;;;;168.00;159.87;;;12.10;99.90;;;;;;4920167;29;20308;-74
2023/10/19 12:44:40;;;;;;;155.37;147.43;;;12.20;99.90;;;;;;4886885;29;20424;-74
2023/10/19 12:47:09;;;;;;;165.97;157.60;;;12.10;99.90;;;;;;4892550;29;20306;-74
2023/10/19 12:49:36;;;;;;;196.70;187.30;;;12.10;99.90;;;;;;4893667;29;20371;-74